Terminal Aerodrome Forecast
Issued by NWS

Home | Current Version | Previous Version | Text Only | Print | Product List | Glossary Off
Versions: 1 2 3 4 5 6 7 8 9 10 11 12 13 14 15 16 17 18 19 20 21 22 23 24 25 26 27 28

088
FTUS43 KTOP 250520
TAFFOE
TAF
KFOE 250520Z 2506/2606 34013G20KT P6SM VCSH OVC007
     FM251600 35013KT P6SM OVC013=

USA.gov is the U.S. government's official web portal to all federal, state and local government web resources and services.